createdAt,value
2019-03-29T00:08:11.631Z,0.01
2019-03-29T00:18:11.610Z,0.00
2019-03-29T00:28:11.724Z,0.00
2019-03-29T00:38:11.637Z,0.00
2019-03-29T00:48:11.639Z,0.00
2019-03-29T00:58:11.754Z,0.00
2019-03-29T01:08:11.748Z,0.02
2019-03-29T01:18:11.940Z,0.00
2019-03-29T01:28:12.076Z,0.00
2019-03-29T01:38:21.604Z,0.00
2019-03-29T01:48:12.552Z,0.00
2019-03-29T01:58:12.664Z,0.00
2019-03-29T02:08:11.615Z,0.00
2019-03-29T02:18:11.613Z,0.00
2019-03-29T02:28:11.616Z,0.00
2019-03-29T02:38:11.650Z,0.00
2019-03-29T02:48:11.619Z,0.00
2019-03-29T02:58:12.156Z,0.00
2019-03-29T03:08:11.641Z,0.00
2019-03-29T03:18:11.694Z,0.00
2019-03-29T03:28:11.647Z,0.00
2019-03-29T03:38:11.732Z,0.00
2019-03-29T03:48:11.619Z,0.00
2019-03-29T03:58:11.664Z,0.00
2019-03-29T04:08:11.818Z,0.00
2019-03-29T04:18:15.448Z,0.00
2019-03-29T04:28:11.698Z,0.00
2019-03-29T04:38:11.594Z,0.00
2019-03-29T04:48:11.649Z,0.00
2019-03-29T04:58:11.695Z,0.00
2019-03-29T05:08:11.638Z,0.00
2019-03-29T05:18:11.630Z,0.00
2019-03-29T05:28:11.641Z,0.00
2019-03-29T05:38:11.601Z,0.00
2019-03-29T05:48:12.606Z,0.00
2019-03-29T05:58:11.536Z,0.00
2019-03-29T06:08:11.583Z,0.00
2019-03-29T06:28:20.193Z,0.00
2019-03-29T06:38:19.238Z,0.01
2019-03-29T06:48:19.166Z,0.02
2019-03-29T06:58:19.676Z,0.07
2019-03-29T07:08:20.270Z,0.05
2019-03-29T07:18:19.337Z,0.07
2019-03-29T07:28:19.268Z,0.30
2019-03-29T07:38:19.240Z,0.57
2019-03-29T07:48:20.753Z,0.78
2019-03-29T07:58:19.292Z,0.83
2019-03-29T08:08:24.787Z,0.36
2019-03-29T08:18:20.129Z,0.32
2019-03-29T08:28:20.893Z,0.40
2019-03-29T08:38:19.312Z,0.93
2019-03-29T08:48:19.931Z,0.63
2019-03-29T08:58:19.309Z,0.46
2019-03-29T09:08:19.347Z,1.10
2019-03-29T09:18:19.452Z,0.42
2019-03-29T09:28:19.254Z,0.78
2019-03-29T09:38:19.263Z,1.14
2019-03-29T09:48:19.313Z,0.74
2019-03-29T09:58:20.483Z,0.90
2019-03-29T10:08:19.400Z,1.09
2019-03-29T10:18:19.313Z,0.79
2019-03-29T10:28:19.406Z,0.85
2019-03-29T10:38:19.412Z,0.82
2019-03-29T10:48:19.329Z,1.28
2019-03-29T10:58:19.319Z,1.03
2019-03-29T11:08:21.169Z,1.86
2019-03-29T11:18:19.405Z,1.35
2019-03-29T11:28:19.541Z,1.72
2019-03-29T11:38:19.368Z,1.04
2019-03-29T11:48:19.409Z,1.30
2019-03-29T11:58:19.388Z,1.38
2019-03-29T12:08:19.399Z,1.94
2019-03-29T12:18:20.367Z,1.64
2019-03-29T12:28:19.370Z,1.46
2019-03-29T12:38:19.354Z,1.99
2019-03-29T12:48:19.430Z,1.82
2019-03-29T12:58:19.468Z,2.15
2019-03-29T13:08:19.481Z,1.75
2019-03-29T13:28:26.445Z,2.43
2019-03-29T13:38:26.874Z,2.02
2019-03-29T13:48:26.917Z,2.67
2019-03-29T13:58:26.331Z,2.61
2019-03-29T14:08:27.135Z,2.66
2019-03-29T14:18:26.207Z,2.53
2019-03-29T14:28:26.125Z,3.68
2019-03-29T14:38:26.460Z,2.94
2019-03-29T14:48:26.153Z,2.14
2019-03-29T14:58:29.305Z,2.84
2019-03-29T15:08:26.110Z,2.53
2019-03-29T15:18:26.139Z,2.04
2019-03-29T15:28:26.180Z,2.45
2019-03-29T15:38:26.264Z,2.03
2019-03-29T15:48:29.486Z,2.71
2019-03-29T15:58:26.191Z,3.00
2019-03-29T16:08:27.108Z,2.79
2019-03-29T16:18:26.144Z,3.16
2019-03-29T16:28:28.086Z,2.58
2019-03-29T16:38:27.190Z,2.39
2019-03-29T16:48:26.176Z,2.20
2019-03-29T16:58:26.186Z,2.05
2019-03-29T17:18:45.618Z,2.50
2019-03-29T17:28:45.694Z,2.78
2019-03-29T17:38:45.673Z,1.53
2019-03-29T17:48:45.721Z,1.90
2019-03-29T17:58:45.639Z,2.09
2019-03-29T18:08:45.634Z,1.46
2019-03-29T18:18:45.634Z,2.02
2019-03-29T18:28:45.721Z,1.92
2019-03-29T18:38:45.666Z,2.37
2019-03-29T18:48:45.652Z,2.59
2019-03-29T18:58:45.679Z,1.87
2019-03-29T19:08:45.695Z,0.93
2019-03-29T19:18:45.703Z,0.98
2019-03-29T19:28:45.674Z,1.06
2019-03-29T19:38:45.931Z,1.10
2019-03-29T19:48:45.685Z,1.04
2019-03-29T19:58:45.674Z,1.01
2019-03-29T20:08:45.753Z,1.06
2019-03-29T20:18:45.869Z,0.80
2019-03-29T20:28:45.711Z,0.65
2019-03-29T20:38:46.758Z,0.38
2019-03-29T20:48:45.726Z,0.32
2019-03-29T20:58:45.691Z,0.53
2019-03-29T21:08:45.639Z,0.33
2019-03-29T21:18:45.679Z,0.09
2019-03-29T21:28:45.700Z,0.03
2019-03-29T21:38:45.634Z,0.08
2019-03-29T21:48:45.671Z,0.41
2019-03-29T21:58:45.765Z,0.07
2019-03-29T22:08:45.714Z,0.08
2019-03-29T22:18:45.717Z,0.10
2019-03-29T22:28:45.750Z,0.00
2019-03-29T22:38:45.634Z,0.00
2019-03-29T22:48:52.310Z,0.00
2019-03-29T22:58:45.701Z,0.00
2019-03-29T23:08:45.630Z,0.00
2019-03-29T23:18:45.620Z,0.00
2019-03-29T23:28:45.734Z,0.04
2019-03-29T23:38:45.690Z,0.02
2019-03-29T23:48:45.636Z,0.01
2019-03-29T23:58:46.405Z,0.00
